Time;durP1;ratioP1;P1;durP2;ratioP2;P2;SDS_P1;SDS_P2;PMS_P1;PMS_P2;Temp;Humidity;BMP_temperature;BMP_pressure;BME280_temperature;BME280_humidity;BME280_pressure;Samples;Min_cycle;Max_cycle;Signal;HPM_P1;HPM_P2
2021/05/17 00:00:09;;;;;;;1.10;0.90;;;;;;;;;;5116000;28;20161;-41
2021/05/17 00:02:35;;;;;;;2.45;0.98;;;;;;;;;;5115256;28;21905;-41
2021/05/17 00:05:01;;;;;;;1.70;1.10;;;;;;;;;;5113085;28;20520;-41
2021/05/17 00:07:27;;;;;;;0.73;0.70;;;;;;;;;;5114183;28;20544;-41
2021/05/17 00:09:53;;;;;;;1.05;0.95;;;;;;;;;;5109581;28;20713;-41
2021/05/17 00:12:20;;;;;;;1.15;0.95;;;;;;;;;;5115085;28;20185;-41
2021/05/17 00:14:46;;;;;;;1.83;1.10;;;;;;;;;;5102760;28;20192;-41
2021/05/17 00:17:12;;;;;;;0.98;0.90;;;;;;;;;;5095498;28;20576;-41
2021/05/17 00:19:38;;;;;;;1.52;0.90;;;;;;;;;;5104930;28;20540;-41
2021/05/17 00:22:04;;;;;;;1.33;0.90;;;;;;;;;;5114663;28;20185;-41
2021/05/17 00:24:31;;;;;;;1.52;1.10;;;;;;;;;;5108664;28;20197;-41
2021/05/17 00:26:57;;;;;;;1.02;0.90;;;;;;;;;;5115382;28;20165;-41
2021/05/17 00:29:23;;;;;;;1.10;1.00;;;;;;;;;;5115601;28;20170;-41
2021/05/17 00:31:50;;;;;;;0.80;0.80;;;;;;;;;;5113557;28;20214;-41
2021/05/17 00:34:16;;;;;;;1.15;0.90;;;;;;;;;;5115329;28;20264;-41
2021/05/17 00:36:42;;;;;;;1.00;0.90;;;;;;;;;;5115081;28;20263;-41
2021/05/17 00:39:09;;;;;;;0.82;0.77;;;;;;;;;;5115195;28;20268;-41
2021/05/17 00:41:38;;;;;;;0.80;0.77;;;;;;;;;;5114589;28;20260;-41
2021/05/17 00:44:04;;;;;;;0.82;0.80;;;;;;;;;;5109567;28;20205;-41
2021/05/17 00:46:31;;;;;;;1.52;1.10;;;;;;;;;;5115267;28;20161;-41
2021/05/17 00:48:57;;;;;;;1.17;0.82;;;;;;;;;;5114837;28;20169;-41
2021/05/17 00:51:23;;;;;;;0.73;0.73;;;;;;;;;;5114735;28;20166;-41
2021/05/17 00:53:49;;;;;;;0.77;0.77;;;;;;;;;;5113759;28;20249;-41
2021/05/17 00:56:15;;;;;;;0.82;0.80;;;;;;;;;;5112499;28;20184;-41
2021/05/17 00:58:41;;;;;;;0.88;0.70;;;;;;;;;;5115099;28;20165;-41
2021/05/17 01:01:08;;;;;;;0.65;0.65;;;;;;;;;;5114516;28;20176;-41
2021/05/17 01:03:34;;;;;;;0.77;0.70;;;;;;;;;;5110133;28;20424;-41
2021/05/17 01:06:01;;;;;;;0.75;0.75;;;;;;;;;;5114594;28;20169;-41
2021/05/17 01:08:37;;;;;;;1.88;0.80;;;;;;;;;;5097305;28;20177;-41
2021/05/17 01:11:04;;;;;;;1.45;1.00;;;;;;;;;;5114584;28;20192;-41
2021/05/17 01:13:30;;;;;;;0.75;0.75;;;;;;;;;;5108720;28;20173;-41
2021/05/17 01:15:58;;;;;;;0.60;0.57;;;;;;;;;;5109157;28;20260;-41
2021/05/17 01:18:24;;;;;;;0.63;0.60;;;;;;;;;;5117405;28;20456;-41
2021/05/17 01:20:52;;;;;;;1.42;0.70;;;;;;;;;;5118555;28;20300;-41
2021/05/17 01:25:47;;;;;;;0.50;0.50;;;;;;;;;;5118613;28;20583;-41
2021/05/17 01:28:20;;;;;;;0.95;0.70;;;;;;;;;;5118878;28;20162;-41
2021/05/17 01:30:46;;;;;;;0.98;0.80;;;;;;;;;;5118034;28;20692;-41
2021/05/17 01:33:13;;;;;;;0.60;0.57;;;;;;;;;;5115910;28;20444;-41
2021/05/17 01:35:41;;;;;;;0.80;0.80;;;;;;;;;;5118171;28;20173;-41
2021/05/17 01:38:07;;;;;;;0.52;0.50;;;;;;;;;;5118131;28;20185;-41
2021/05/17 01:40:35;;;;;;;0.60;0.60;;;;;;;;;;5117386;28;20183;-41
2021/05/17 01:43:03;;;;;;;1.38;0.80;;;;;;;;;;5118654;28;20177;-41
2021/05/17 01:45:30;;;;;;;0.98;0.63;;;;;;;;;;5118209;28;20232;-41
2021/05/17 01:47:57;;;;;;;0.63;0.63;;;;;;;;;;5118371;28;20552;-41
2021/05/17 01:50:24;;;;;;;0.50;0.50;;;;;;;;;;5118387;28;20193;-41
2021/05/17 01:52:50;;;;;;;1.33;1.00;;;;;;;;;;5113648;28;20191;-41
2021/05/17 01:55:17;;;;;;;0.70;0.70;;;;;;;;;;5118199;28;20224;-41
2021/05/17 01:57:43;;;;;;;0.60;0.60;;;;;;;;;;5118330;28;20169;-41
2021/05/17 02:00:10;;;;;;;0.50;0.50;;;;;;;;;;5118451;28;20165;-41
2021/05/17 02:02:37;;;;;;;0.50;0.50;;;;;;;;;;5108878;28;20210;-41
2021/05/17 02:05:04;;;;;;;1.98;0.85;;;;;;;;;;5105558;28;20607;-41
2021/05/17 02:07:30;;;;;;;1.30;0.68;;;;;;;;;;5117416;28;20177;-41
2021/05/17 02:09:56;;;;;;;1.08;0.80;;;;;;;;;;5117608;28;20185;-41
2021/05/17 02:12:24;;;;;;;0.77;0.77;;;;;;;;;;5101681;28;20291;-41
2021/05/17 02:14:53;;;;;;;0.95;0.50;;;;;;;;;;5110410;28;20220;-41
2021/05/17 02:17:20;;;;;;;1.95;0.60;;;;;;;;;;5118032;28;20179;-41
2021/05/17 02:19:47;;;;;;;0.60;0.60;;;;;;;;;;5117279;28;20173;-41
2021/05/17 02:22:13;;;;;;;1.17;0.70;;;;;;;;;;5115926;28;20258;-41
2021/05/17 02:24:39;;;;;;;0.63;0.60;;;;;;;;;;5117386;28;20512;-41
2021/05/17 02:27:06;;;;;;;0.82;0.60;;;;;;;;;;5117312;28;20173;-41
2021/05/17 02:29:32;;;;;;;0.45;0.45;;;;;;;;;;5116639;28;20169;-41
2021/05/17 02:31:58;;;;;;;1.10;0.77;;;;;;;;;;5105326;28;20610;-41
2021/05/17 02:34:25;;;;;;;0.60;0.60;;;;;;;;;;5104860;28;20268;-41
2021/05/17 02:36:51;;;;;;;0.88;0.57;;;;;;;;;;5117067;28;20188;-41
2021/05/17 02:39:17;;;;;;;0.57;0.50;;;;;;;;;;5117070;28;20188;-41
2021/05/17 02:41:43;;;;;;;0.68;0.68;;;;;;;;;;5116021;28;20181;-41
2021/05/17 02:44:09;;;;;;;0.60;0.60;;;;;;;;;;5117574;28;20596;-41
2021/05/17 02:46:36;;;;;;;0.60;0.60;;;;;;;;;;5117090;28;20192;-41
2021/05/17 02:49:02;;;;;;;0.50;0.50;;;;;;;;;;5117488;28;20170;-41
2021/05/17 02:51:28;;;;;;;1.08;0.63;;;;;;;;;;5113422;28;20166;-41
2021/05/17 02:53:54;;;;;;;0.50;0.50;;;;;;;;;;5112002;28;20187;-41
2021/05/17 02:56:35;;;;;;;0.63;0.60;;;;;;;;;;5116558;28;20236;-41
2021/05/17 02:59:02;;;;;;;0.60;0.52;;;;;;;;;;5116852;28;20173;-41
2021/05/17 03:01:31;;;;;;;0.60;0.60;;;;;;;;;;5109762;28;20181;-41
2021/05/17 03:04:00;;;;;;;0.75;0.52;;;;;;;;;;5115417;28;20481;-41
2021/05/17 03:06:37;;;;;;;0.50;0.50;;;;;;;;;;5116724;28;20227;-41
2021/05/17 03:09:07;;;;;;;0.65;0.60;;;;;;;;;;5116682;28;20204;-41
2021/05/17 03:11:35;;;;;;;0.43;0.43;;;;;;;;;;5114639;28;20211;-41
2021/05/17 03:14:03;;;;;;;0.82;0.50;;;;;;;;;;5098902;28;20177;-41
2021/05/17 03:16:29;;;;;;;0.43;0.43;;;;;;;;;;5116515;28;20415;-41
2021/05/17 03:18:55;;;;;;;0.50;0.50;;;;;;;;;;5116718;28;20173;-41
2021/05/17 03:21:22;;;;;;;0.98;0.55;;;;;;;;;;5114951;28;20458;-41
2021/05/17 03:23:49;;;;;;;0.50;0.50;;;;;;;;;;5116314;28;20551;-41
2021/05/17 03:26:19;;;;;;;0.68;0.60;;;;;;;;;;5116334;28;20173;-41
2021/05/17 03:28:45;;;;;;;0.60;0.60;;;;;;;;;;5116748;28;20307;-41
2021/05/17 03:31:11;;;;;;;0.50;0.50;;;;;;;;;;5115035;28;20238;-41
2021/05/17 03:33:37;;;;;;;0.40;0.40;;;;;;;;;;5116458;28;20165;-41
2021/05/17 03:36:04;;;;;;;0.60;0.60;;;;;;;;;;5116186;28;20563;-41
2021/05/17 03:38:30;;;;;;;0.40;0.40;;;;;;;;;;5116240;28;20165;-41
2021/05/17 03:40:56;;;;;;;0.60;0.60;;;;;;;;;;5100502;28;20583;-41
2021/05/17 03:43:22;;;;;;;0.70;0.60;;;;;;;;;;5085539;28;20273;-41
2021/05/17 03:45:48;;;;;;;0.55;0.55;;;;;;;;;;5115806;28;20212;-41
2021/05/17 03:48:14;;;;;;;0.60;0.60;;;;;;;;;;5116115;28;20172;-41
2021/05/17 03:50:40;;;;;;;0.47;0.45;;;;;;;;;;5104729;28;20174;-41
2021/05/17 03:53:06;;;;;;;0.40;0.40;;;;;;;;;;5115489;28;20184;-41
2021/05/17 03:55:32;;;;;;;0.50;0.50;;;;;;;;;;5115965;28;20184;-41
2021/05/17 03:57:59;;;;;;;0.60;0.60;;;;;;;;;;5115361;28;20189;-41
2021/05/17 04:00:31;;;;;;;0.40;0.30;;;;;;;;;;5115654;28;20276;-41
2021/05/17 04:02:58;;;;;;;0.70;0.50;;;;;;;;;;5115739;28;20477;-41
2021/05/17 04:08:11;;;;;;;0.30;0.30;;;;;;;;;;5115494;28;20268;-41
2021/05/17 04:13:27;;;;;;;0.55;0.45;;;;;;;;;;5114526;28;20188;-41
2021/05/17 04:15:55;;;;;;;0.55;0.55;;;;;;;;;;5115408;28;20169;-41
2021/05/17 04:18:21;;;;;;;0.88;0.50;;;;;;;;;;5111049;28;20608;-41
2021/05/17 04:20:48;;;;;;;0.60;0.50;;;;;;;;;;5099021;28;20595;-41
2021/05/17 04:23:14;;;;;;;0.60;0.60;;;;;;;;;;5115362;28;20165;-41
2021/05/17 04:25:41;;;;;;;0.50;0.50;;;;;;;;;;5114930;28;20242;-41
2021/05/17 04:28:07;;;;;;;4.38;0.60;;;;;;;;;;5113435;28;20184;-41
2021/05/17 04:30:33;;;;;;;3.17;0.65;;;;;;;;;;5111964;28;20191;-41
2021/05/17 04:32:59;;;;;;;2.63;1.13;;;;;;;;;;5113999;28;20184;-41
2021/05/17 04:35:25;;;;;;;3.97;1.10;;;;;;;;;;5114192;28;20181;-41
2021/05/17 04:37:51;;;;;;;6.97;1.50;;;;;;;;;;5114080;28;20654;-41
2021/05/17 04:40:17;;;;;;;2.65;0.90;;;;;;;;;;5104736;28;20285;-41
2021/05/17 04:42:44;;;;;;;2.83;0.98;;;;;;;;;;5099246;28;20180;-41
2021/05/17 04:45:10;;;;;;;7.00;1.15;;;;;;;;;;5114951;28;20241;-41
2021/05/17 04:47:36;;;;;;;3.50;1.17;;;;;;;;;;5115078;28;20181;-41
2021/05/17 04:50:03;;;;;;;3.83;0.90;;;;;;;;;;5115148;28;20193;-41
2021/05/17 04:52:29;;;;;;;4.47;1.30;;;;;;;;;;5116749;28;20192;-41
2021/05/17 04:54:55;;;;;;;5.72;1.30;;;;;;;;;;5121343;28;20646;-41
2021/05/17 04:57:21;;;;;;;4.60;1.08;;;;;;;;;;5121369;28;20184;-41
2021/05/17 04:59:47;;;;;;;3.13;1.10;;;;;;;;;;5121991;28;20180;-41
2021/05/17 05:02:13;;;;;;;4.00;1.10;;;;;;;;;;5120481;28;20179;-41
2021/05/17 05:04:39;;;;;;;4.63;1.30;;;;;;;;;;5119635;28;20241;-41
2021/05/17 05:07:07;;;;;;;6.05;1.05;;;;;;;;;;5115664;28;20257;-41
2021/05/17 05:09:33;;;;;;;3.42;1.05;;;;;;;;;;5121380;28;20176;-41
2021/05/17 05:11:59;;;;;;;4.72;1.20;;;;;;;;;;5121557;28;20172;-41
2021/05/17 05:14:25;;;;;;;3.25;1.20;;;;;;;;;;5116068;28;20173;-41
2021/05/17 05:16:51;;;;;;;2.58;0.82;;;;;;;;;;5104065;28;20272;-41
2021/05/17 05:19:17;;;;;;;3.05;0.85;;;;;;;;;;5109606;28;20529;-41
2021/05/17 05:21:43;;;;;;;4.63;1.10;;;;;;;;;;5117763;28;20196;-41
2021/05/17 05:24:10;;;;;;;2.53;0.90;;;;;;;;;;5119638;28;20313;-41
2021/05/17 05:26:50;;;;;;;2.55;0.80;;;;;;;;;;5106188;28;20192;-41
2021/05/17 05:29:24;;;;;;;4.03;0.80;;;;;;;;;;5101352;28;20180;-41
2021/05/17 05:34:19;;;;;;;2.33;0.90;;;;;;;;;;5121053;28;20173;-41
2021/05/17 05:36:45;;;;;;;2.05;0.90;;;;;;;;;;5112421;28;20180;-41
2021/05/17 05:39:11;;;;;;;2.53;0.75;;;;;;;;;;5118151;28;20184;-41
2021/05/17 05:41:37;;;;;;;2.83;0.80;;;;;;;;;;5102185;28;20261;-41
2021/05/17 05:44:03;;;;;;;1.45;0.75;;;;;;;;;;5102049;28;20268;-41
2021/05/17 05:46:29;;;;;;;2.13;0.68;;;;;;;;;;5118186;28;20177;-41
2021/05/17 05:48:57;;;;;;;1.85;0.95;;;;;;;;;;5121005;28;20196;-41
2021/05/17 05:51:24;;;;;;;1.85;1.10;;;;;;;;;;5119685;28;20173;-41
2021/05/17 05:53:50;;;;;;;2.38;0.80;;;;;;;;;;5121036;28;20173;-41
2021/05/17 05:56:16;;;;;;;1.65;0.80;;;;;;;;;;5111059;28;20172;-41
2021/05/17 05:58:43;;;;;;;1.10;0.82;;;;;;;;;;5105811;28;20256;-41
2021/05/17 06:01:10;;;;;;;2.60;0.80;;;;;;;;;;5105140;28;20260;-41
2021/05/17 06:03:36;;;;;;;1.20;0.80;;;;;;;;;;5120042;28;20205;-41
2021/05/17 06:06:02;;;;;;;1.85;0.63;;;;;;;;;;5115873;28;20283;-41
2021/05/17 06:08:28;;;;;;;1.35;0.68;;;;;;;;;;5116826;28;20177;-41
2021/05/17 06:10:55;;;;;;;2.22;0.90;;;;;;;;;;5117614;28;20246;-41
2021/05/17 06:13:21;;;;;;;1.30;0.70;;;;;;;;;;5118187;28;20169;-41
2021/05/17 06:15:47;;;;;;;2.42;0.88;;;;;;;;;;5116118;28;20173;-41
2021/05/17 06:18:14;;;;;;;1.45;0.65;;;;;;;;;;5114292;28;20572;-41
2021/05/17 06:20:40;;;;;;;3.03;0.63;;;;;;;;;;5097122;28;20557;-41
2021/05/17 06:23:08;;;;;;;3.20;0.70;;;;;;;;;;5106673;28;20230;-41
2021/05/17 06:25:34;;;;;;;2.45;1.00;;;;;;;;;;5117337;28;20261;-41
2021/05/17 06:28:00;;;;;;;0.60;0.52;;;;;;;;;;5118182;28;20193;-41
2021/05/17 06:30:27;;;;;;;0.77;0.60;;;;;;;;;;5116248;28;20268;-41
2021/05/17 06:32:53;;;;;;;0.52;0.50;;;;;;;;;;5116888;28;20412;-41
2021/05/17 06:35:25;;;;;;;1.02;0.50;;;;;;;;;;5115638;28;20177;-41
2021/05/17 06:37:52;;;;;;;2.65;0.57;;;;;;;;;;5112491;28;20641;-41
2021/05/17 06:40:18;;;;;;;1.20;0.88;;;;;;;;;;5117378;28;20244;-41
2021/05/17 06:42:44;;;;;;;1.25;0.52;;;;;;;;;;5117378;28;20270;-41
2021/05/17 06:45:10;;;;;;;1.52;0.90;;;;;;;;;;5116744;28;20204;-41
2021/05/17 06:47:36;;;;;;;2.88;0.80;;;;;;;;;;5116722;28;20181;-41
2021/05/17 06:50:03;;;;;;;1.33;0.70;;;;;;;;;;5117597;28;20192;-41
2021/05/17 06:52:30;;;;;;;0.88;0.60;;;;;;;;;;5108770;28;20184;-41
2021/05/17 06:55:02;;;;;;;3.80;0.90;;;;;;;;;;5117522;28;20744;-41
2021/05/17 07:00:06;;;;;;;0.95;0.70;;;;;;;;;;5117214;28;20185;-41
2021/05/17 07:02:35;;;;;;;1.08;0.57;;;;;;;;;;5116349;28;20411;-41
2021/05/17 07:05:02;;;;;;;0.85;0.60;;;;;;;;;;5116706;28;20209;-41
2021/05/17 07:07:41;;;;;;;0.95;0.65;;;;;;;;;;5115073;28;20187;-41
2021/05/17 07:12:52;;;;;;;1.23;0.50;;;;;;;;;;5116229;28;20187;-41
2021/05/17 07:15:18;;;;;;;0.93;0.55;;;;;;;;;;5115053;28;20227;-41
2021/05/17 07:17:44;;;;;;;2.75;0.80;;;;;;;;;;5115919;28;20181;-41
2021/05/17 07:20:15;;;;;;;1.85;0.40;;;;;;;;;;5116995;28;20180;-41
2021/05/17 07:25:26;;;;;;;2.60;0.70;;;;;;;;;;5103420;28;20567;-41
2021/05/17 07:27:52;;;;;;;6.05;0.82;;;;;;;;;;5116425;28;20545;-41
2021/05/17 07:30:18;;;;;;;1.38;0.50;;;;;;;;;;5116203;28;20224;-41
2021/05/17 07:32:44;;;;;;;0.60;0.50;;;;;;;;;;5108333;28;20177;-41
2021/05/17 07:35:10;;;;;;;1.38;0.52;;;;;;;;;;5110435;28;20256;-41
2021/05/17 07:37:37;;;;;;;2.72;0.75;;;;;;;;;;5115813;28;20254;-41
2021/05/17 07:40:04;;;;;;;3.55;1.05;;;;;;;;;;5112543;28;20584;-41
2021/05/17 07:42:30;;;;;;;5.78;1.02;;;;;;;;;;5114458;28;20192;-41
2021/05/17 07:44:56;;;;;;;4.43;1.20;;;;;;;;;;5115703;28;20261;-41
2021/05/17 07:47:22;;;;;;;3.65;0.90;;;;;;;;;;5115109;28;20540;-41
2021/05/17 07:49:53;;;;;;;4.10;0.82;;;;;;;;;;5100507;28;20255;-41
2021/05/17 07:52:20;;;;;;;3.53;1.00;;;;;;;;;;5105438;28;20169;-41
2021/05/17 07:54:46;;;;;;;3.60;0.88;;;;;;;;;;5115603;28;20181;-41
2021/05/17 07:57:14;;;;;;;3.38;1.15;;;;;;;;;;5115902;28;20237;-41
2021/05/17 07:59:40;;;;;;;2.08;0.85;;;;;;;;;;5116394;28;20482;-41
2021/05/17 08:02:06;;;;;;;2.63;0.77;;;;;;;;;;5108253;28;20173;-41
2021/05/17 08:04:32;;;;;;;3.92;0.70;;;;;;;;;;5102962;28;20197;-41
2021/05/17 08:06:58;;;;;;;1.75;0.80;;;;;;;;;;5107630;28;20830;-41
2021/05/17 08:09:24;;;;;;;2.83;0.88;;;;;;;;;;5114965;28;20200;-41
2021/05/17 08:11:50;;;;;;;4.65;0.90;;;;;;;;;;5113358;28;20540;-41
2021/05/17 08:14:17;;;;;;;2.22;0.55;;;;;;;;;;5115468;28;20185;-41
2021/05/17 08:16:43;;;;;;;3.13;1.15;;;;;;;;;;5115292;28;20258;-41
2021/05/17 08:19:09;;;;;;;3.15;0.95;;;;;;;;;;5114884;28;20193;-41
2021/05/17 08:21:35;;;;;;;2.35;1.05;;;;;;;;;;5114634;28;20279;-41
2021/05/17 08:24:01;;;;;;;2.28;0.73;;;;;;;;;;5114704;28;20203;-41
2021/05/17 08:26:27;;;;;;;2.35;1.00;;;;;;;;;;5097482;28;20268;-41
2021/05/17 08:28:54;;;;;;;1.48;0.68;;;;;;;;;;5096310;28;20188;-41
2021/05/17 08:31:22;;;;;;;2.88;0.82;;;;;;;;;;5114032;28;20173;-41
2021/05/17 08:33:48;;;;;;;3.92;1.10;;;;;;;;;;5114617;28;20170;-41
2021/05/17 08:36:15;;;;;;;2.10;0.70;;;;;;;;;;5115305;28;20463;-41
2021/05/17 08:38:41;;;;;;;2.08;0.55;;;;;;;;;;5114421;28;20184;-41
2021/05/17 08:41:08;;;;;;;2.28;0.60;;;;;;;;;;5101676;28;20618;-41
2021/05/17 08:43:37;;;;;;;2.08;0.80;;;;;;;;;;5112539;28;20617;-41
2021/05/17 08:46:03;;;;;;;2.47;0.65;;;;;;;;;;5105821;28;20213;-41
2021/05/17 08:48:29;;;;;;;1.40;0.70;;;;;;;;;;5093855;28;20174;-41
2021/05/17 08:50:55;;;;;;;2.53;0.98;;;;;;;;;;5111152;28;20552;-41
2021/05/17 08:53:21;;;;;;;2.65;0.80;;;;;;;;;;5106563;28;20272;-41
2021/05/17 08:55:47;;;;;;;2.28;0.50;;;;;;;;;;5115341;28;20179;-41
2021/05/17 08:58:13;;;;;;;1.77;0.60;;;;;;;;;;5098890;28;20452;-41
2021/05/17 09:00:40;;;;;;;1.00;0.63;;;;;;;;;;5102534;28;20173;-41
2021/05/17 09:03:06;;;;;;;1.02;0.63;;;;;;;;;;5103475;28;20177;-41
2021/05/17 09:05:35;;;;;;;0.60;0.60;;;;;;;;;;5114467;28;20209;-41
2021/05/17 09:08:02;;;;;;;3.58;0.45;;;;;;;;;;5114631;28;20172;-41
2021/05/17 09:10:40;;;;;;;1.85;0.60;;;;;;;;;;5098312;28;20182;-41
2021/05/17 09:13:07;;;;;;;1.45;0.40;;;;;;;;;;5113616;28;20177;-41
2021/05/17 09:15:38;;;;;;;3.08;0.77;;;;;;;;;;5114398;28;20183;-41
2021/05/17 09:18:08;;;;;;;0.98;0.60;;;;;;;;;;5114405;28;20185;-41
2021/05/17 09:20:36;;;;;;;1.08;0.60;;;;;;;;;;5100864;28;20227;-41
2021/05/17 09:23:09;;;;;;;1.98;0.50;;;;;;;;;;5113224;28;20220;-41
2021/05/17 09:25:36;;;;;;;1.20;0.60;;;;;;;;;;5112970;28;20189;-41
2021/05/17 09:28:07;;;;;;;1.63;0.70;;;;;;;;;;5114568;28;20843;-41
2021/05/17 09:30:46;;;;;;;0.77;0.57;;;;;;;;;;5109063;28;20186;-41
2021/05/17 09:33:14;;;;;;;1.60;0.60;;;;;;;;;;5112952;28;20413;-41
2021/05/17 09:35:41;;;;;;;2.45;0.50;;;;;;;;;;5114688;28;20165;-41
2021/05/17 09:38:17;;;;;;;1.20;0.40;;;;;;;;;;5114072;28;20421;-42
2021/05/17 09:40:43;;;;;;;1.70;0.70;;;;;;;;;;5105753;28;20579;-41
2021/05/17 09:43:10;;;;;;;1.85;0.70;;;;;;;;;;5118245;28;20177;-41
2021/05/17 09:45:37;;;;;;;1.42;0.50;;;;;;;;;;5118481;28;20253;-41
2021/05/17 09:48:14;;;;;;;0.82;0.52;;;;;;;;;;5118209;28;20761;-41
2021/05/17 09:50:55;;;;;;;1.15;0.50;;;;;;;;;;5117201;28;20272;-41
2021/05/17 09:53:22;;;;;;;0.98;0.60;;;;;;;;;;5111733;28;20560;-41
2021/05/17 09:55:48;;;;;;;1.15;0.47;;;;;;;;;;5118301;28;20169;-41
2021/05/17 09:58:25;;;;;;;0.75;0.57;;;;;;;;;;5117332;28;20185;-41
2021/05/17 10:01:03;;;;;;;1.67;0.50;;;;;;;;;;5117944;28;20172;-41
2021/05/17 10:03:33;;;;;;;0.65;0.50;;;;;;;;;;5117533;28;20281;-41
2021/05/17 10:05:59;;;;;;;1.25;0.60;;;;;;;;;;5117587;28;20243;-41
2021/05/17 10:08:25;;;;;;;1.02;0.38;;;;;;;;;;5113204;28;20205;-41
2021/05/17 10:10:51;;;;;;;1.27;0.45;;;;;;;;;;5104030;28;20200;-41
2021/05/17 10:13:17;;;;;;;1.73;0.35;;;;;;;;;;5109972;28;20472;-41
2021/05/17 10:15:45;;;;;;;0.30;0.30;;;;;;;;;;5117288;28;20177;-41
2021/05/17 10:18:14;;;;;;;1.30;0.47;;;;;;;;;;5112877;28;20347;-41
2021/05/17 10:20:41;;;;;;;1.52;0.60;;;;;;;;;;5097166;28;20189;-41
2021/05/17 10:23:07;;;;;;;1.80;0.40;;;;;;;;;;5110737;28;20219;-41
2021/05/17 10:25:35;;;;;;;0.98;0.70;;;;;;;;;;5117968;28;20205;-41
2021/05/17 10:28:06;;;;;;;3.00;0.65;;;;;;;;;;5116437;28;20169;-41
2021/05/17 10:30:33;;;;;;;2.67;0.57;;;;;;;;;;5117160;28;20188;-41
2021/05/17 10:33:00;;;;;;;1.17;0.60;;;;;;;;;;5117017;28;20575;-41
2021/05/17 10:35:31;;;;;;;1.08;0.50;;;;;;;;;;5117497;28;20189;-41
2021/05/17 10:38:17;;;;;;;0.50;0.45;;;;;;;;;;5116764;28;20177;-41
2021/05/17 10:40:51;;;;;;;1.80;0.60;;;;;;;;;;5114697;28;20519;-41
2021/05/17 10:43:39;;;;;;;0.50;0.30;;;;;;;;;;5117440;28;20177;-41
2021/05/17 10:49:13;;;;;;;1.23;0.50;;;;;;;;;;5109860;28;20211;-41
2021/05/17 10:51:39;;;;;;;0.50;0.50;;;;;;;;;;5099948;28;20270;-41
2021/05/17 10:54:20;;;;;;;0.32;0.32;;;;;;;;;;5117539;28;20165;-41
2021/05/17 10:56:57;;;;;;;0.55;0.40;;;;;;;;;;5116203;28;20237;-41
2021/05/17 11:02:19;;;;;;;11.70;5.78;;;;;;;;;;5116549;28;20218;-41
2021/05/17 11:04:48;;;;;;;13.00;6.45;;;;;;;;;;5113613;28;20201;-41
2021/05/17 11:07:20;;;;;;;30.77;14.25;;;;;;;;;;5113982;28;20177;-41
2021/05/17 11:09:51;;;;;;;64.15;25.77;;;;;;;;;;5116323;28;20291;-41
2021/05/17 11:12:26;;;;;;;88.50;36.78;;;;;;;;;;5116037;28;20213;-41
2021/05/17 11:15:01;;;;;;;70.80;31.85;;;;;;;;;;5116938;28;20184;-41
2021/05/17 11:17:27;;;;;;;64.00;29.13;;;;;;;;;;5108537;28;20201;-41
2021/05/17 11:19:55;;;;;;;59.67;23.85;;;;;;;;;;5109841;28;20204;-41
2021/05/17 11:22:21;;;;;;;39.67;17.30;;;;;;;;;;5115152;28;20588;-42
2021/05/17 11:24:47;;;;;;;24.08;12.13;;;;;;;;;;5116456;28;20223;-41
2021/05/17 11:27:13;;;;;;;28.85;10.85;;;;;;;;;;5115591;28;20252;-41
2021/05/17 11:29:40;;;;;;;26.73;11.95;;;;;;;;;;5116393;28;20512;-41
2021/05/17 11:32:13;;;;;;;26.33;10.13;;;;;;;;;;5115492;28;20227;-41
2021/05/17 11:35:00;;;;;;;21.98;8.43;;;;;;;;;;5116350;28;20200;-41
2021/05/17 11:37:26;;;;;;;18.77;8.55;;;;;;;;;;5113391;28;20230;-41
2021/05/17 11:39:52;;;;;;;17.02;7.25;;;;;;;;;;5115147;28;20234;-41
2021/05/17 11:42:19;;;;;;;14.45;5.70;;;;;;;;;;5115786;28;20200;-41
2021/05/17 11:45:10;;;;;;;10.68;4.72;;;;;;;;;;5116235;28;20196;-41
2021/05/17 11:47:37;;;;;;;8.32;3.97;;;;;;;;;;5109510;28;20177;-41
2021/05/17 11:50:04;;;;;;;10.07;3.83;;;;;;;;;;5114051;28;20215;-41
2021/05/17 11:52:32;;;;;;;8.35;3.60;;;;;;;;;;5107133;28;20169;-41
2021/05/17 11:55:01;;;;;;;8.90;3.67;;;;;;;;;;5116192;28;20206;-41
2021/05/17 11:57:29;;;;;;;8.05;3.47;;;;;;;;;;5097824;28;20188;-41
2021/05/17 11:59:55;;;;;;;7.75;2.85;;;;;;;;;;5115771;28;20449;-41
2021/05/17 12:02:21;;;;;;;6.13;2.63;;;;;;;;;;5097524;28;20443;-41
2021/05/17 12:04:47;;;;;;;10.38;2.90;;;;;;;;;;5108440;28;20204;-41
2021/05/17 12:07:17;;;;;;;7.40;2.65;;;;;;;;;;5115552;28;20180;-41
2021/05/17 12:09:50;;;;;;;8.10;2.60;;;;;;;;;;5115583;28;20192;-41
2021/05/17 12:12:17;;;;;;;5.22;2.53;;;;;;;;;;5114808;28;20303;-41
2021/05/17 12:14:57;;;;;;;3.95;1.90;;;;;;;;;;5114717;28;20753;-41
2021/05/17 12:17:27;;;;;;;5.50;2.15;;;;;;;;;;5106860;28;20185;-41
2021/05/17 12:19:56;;;;;;;9.18;2.20;;;;;;;;;;5113872;28;20583;-41
2021/05/17 12:22:31;;;;;;;5.40;2.50;;;;;;;;;;5115233;28;20242;-41
2021/05/17 12:24:57;;;;;;;4.82;1.70;;;;;;;;;;5114150;28;20579;-41
2021/05/17 12:27:24;;;;;;;5.80;1.80;;;;;;;;;;5108242;28;20211;-41
2021/05/17 12:29:57;;;;;;;4.75;1.88;;;;;;;;;;5113765;28;20196;-41
2021/05/17 12:32:26;;;;;;;2.35;1.40;;;;;;;;;;5114848;28;20165;-41
2021/05/17 12:34:57;;;;;;;4.47;1.45;;;;;;;;;;5095289;28;20174;-41
2021/05/17 12:37:24;;;;;;;2.63;1.45;;;;;;;;;;5114715;28;20176;-41
2021/05/17 12:40:09;;;;;;;3.17;1.10;;;;;;;;;;5104891;28;20188;-41
2021/05/17 12:42:35;;;;;;;2.33;1.10;;;;;;;;;;5096923;28;20257;-41
2021/05/17 12:45:04;;;;;;;5.03;1.40;;;;;;;;;;5114512;28;20333;-41
2021/05/17 12:47:37;;;;;;;4.28;0.93;;;;;;;;;;5104335;28;20186;-41
2021/05/17 12:50:03;;;;;;;5.70;1.15;;;;;;;;;;5114594;28;20271;-41
2021/05/17 12:52:29;;;;;;;1.98;1.08;;;;;;;;;;5114330;28;20181;-41
2021/05/17 12:55:11;;;;;;;3.53;1.25;;;;;;;;;;5097593;28;20208;-41
2021/05/17 12:57:43;;;;;;;1.23;0.80;;;;;;;;;;5110082;28;20267;-41
2021/05/17 13:00:09;;;;;;;0.95;0.75;;;;;;;;;;5114153;28;20174;-41
2021/05/17 13:02:35;;;;;;;0.70;0.70;;;;;;;;;;5114344;28;20188;-41
2021/05/17 13:05:01;;;;;;;4.80;0.95;;;;;;;;;;5114389;28;20205;-41
2021/05/17 13:07:27;;;;;;;0.82;0.65;;;;;;;;;;5112563;28;20180;-41
2021/05/17 13:09:57;;;;;;;1.02;0.70;;;;;;;;;;5114617;28;20738;-41
2021/05/17 13:12:23;;;;;;;1.92;0.75;;;;;;;;;;5114738;28;20161;-41
2021/05/17 13:14:49;;;;;;;2.67;0.77;;;;;;;;;;5117934;28;20205;-41
2021/05/17 13:17:16;;;;;;;1.02;0.68;;;;;;;;;;5112250;28;20250;-41
2021/05/17 13:31:02;;;;;;;3.13;0.90;;;;;;;;;;5118753;28;20171;-41
2021/05/17 13:33:47;;;;;;;4.25;1.10;;;;;;;;;;5118639;28;20500;-41
2021/05/17 13:36:17;;;;;;;1.90;0.98;;;;;;;;;;5109209;28;20237;-41
2021/05/17 13:38:50;;;;;;;3.83;0.85;;;;;;;;;;5118486;28;20177;-41
2021/05/17 13:41:17;;;;;;;4.50;0.90;;;;;;;;;;5118396;28;20592;-41
2021/05/17 13:43:43;;;;;;;7.20;1.35;;;;;;;;;;5118309;28;20252;-41
2021/05/17 13:46:09;;;;;;;4.85;1.10;;;;;;;;;;5117937;28;20341;-41
2021/05/17 13:48:48;;;;;;;11.38;2.38;;;;;;;;;;5118662;28;20197;-41
2021/05/17 13:51:15;;;;;;;22.23;5.45;;;;;;;;;;5118109;28;20165;-41
2021/05/17 13:53:41;;;;;;;35.45;7.53;;;;;;;;;;5117690;28;20398;-41
2021/05/17 13:56:06;;;;;;;38.53;8.30;;;;;;;;;;5116409;28;20224;-41
2021/05/17 13:58:32;;;;;;;41.83;11.13;;;;;;;;;;5103276;28;20584;-41
2021/05/17 14:00:59;;;;;;;39.83;10.75;;;;;;;;;;5097687;28;20283;-41
2021/05/17 14:03:27;;;;;;;39.60;11.10;;;;;;;;;;5099655;28;20589;-41
2021/05/17 14:05:53;;;;;;;38.80;10.52;;;;;;;;;;5117940;28;20450;-41
2021/05/17 14:08:19;;;;;;;43.95;11.05;;;;;;;;;;5118187;28;20204;-41
2021/05/17 14:10:45;;;;;;;45.13;11.75;;;;;;;;;;5112918;28;20645;-41
2021/05/17 14:13:11;;;;;;;40.13;10.63;;;;;;;;;;5104705;28;20267;-41
2021/05/17 14:15:39;;;;;;;41.47;11.30;;;;;;;;;;5112127;28;20256;-41
2021/05/17 14:18:05;;;;;;;40.58;12.00;;;;;;;;;;5118470;28;20176;-41
2021/05/17 14:20:31;;;;;;;49.58;12.27;;;;;;;;;;5117234;28;20181;-41
2021/05/17 14:22:57;;;;;;;43.97;11.02;;;;;;;;;;5109942;28;20579;-41
2021/05/17 14:25:23;;;;;;;32.53;10.57;;;;;;;;;;5116300;28;20672;-41
2021/05/17 14:27:50;;;;;;;43.92;10.68;;;;;;;;;;5117977;28;20587;-41
2021/05/17 14:30:17;;;;;;;41.95;11.65;;;;;;;;;;5118158;28;20555;-41
2021/05/17 14:32:44;;;;;;;38.38;11.05;;;;;;;;;;5116799;28;20540;-41
2021/05/17 14:35:10;;;;;;;33.35;9.70;;;;;;;;;;5117285;28;20176;-41
2021/05/17 14:37:37;;;;;;;28.83;9.80;;;;;;;;;;5097480;28;20166;-41
2021/05/17 14:40:04;;;;;;;30.65;10.10;;;;;;;;;;5115489;28;20669;-41
2021/05/17 14:42:30;;;;;;;31.85;9.77;;;;;;;;;;5112174;28;20178;-41
2021/05/17 14:44:56;;;;;;;24.17;9.25;;;;;;;;;;5117042;28;20288;-41
2021/05/17 14:47:24;;;;;;;25.73;8.40;;;;;;;;;;5117765;28;20559;-41
2021/05/17 14:49:50;;;;;;;25.50;8.63;;;;;;;;;;5117717;28;20187;-41
2021/05/17 14:52:16;;;;;;;27.25;8.70;;;;;;;;;;5116536;28;20173;-41
2021/05/17 14:54:42;;;;;;;30.13;8.35;;;;;;;;;;5116866;28;20509;-41
2021/05/17 14:57:08;;;;;;;22.52;8.07;;;;;;;;;;5117205;28;20625;-41
2021/05/17 14:59:34;;;;;;;28.17;9.50;;;;;;;;;;5117481;28;20256;-41
2021/05/17 15:02:00;;;;;;;22.25;8.23;;;;;;;;;;5116865;28;20234;-41
2021/05/17 15:04:26;;;;;;;22.17;8.05;;;;;;;;;;5116048;28;20562;-41
2021/05/17 15:06:52;;;;;;;20.58;8.00;;;;;;;;;;5116725;28;20184;-41
2021/05/17 15:09:20;;;;;;;25.33;8.00;;;;;;;;;;5116789;28;20196;-41
2021/05/17 15:11:45;;;;;;;26.35;7.68;;;;;;;;;;5116512;28;20169;-41
2021/05/17 15:14:12;;;;;;;22.67;7.60;;;;;;;;;;5112660;28;20192;-41
2021/05/17 15:16:38;;;;;;;23.30;8.07;;;;;;;;;;5117053;28;20226;-41
2021/05/17 15:19:06;;;;;;;24.10;6.90;;;;;;;;;;5117041;28;20164;-41